createdAt,value
2018-12-12T00:00:59.129Z,74.70
2018-12-12T00:03:28.173Z,89.27
2018-12-12T00:05:57.228Z,123.47
2018-12-12T00:08:26.315Z,121.23
2018-12-12T00:10:55.389Z,107.00
2018-12-12T00:13:24.442Z,91.07
2018-12-12T00:16:06.622Z,79.70
2018-12-12T00:18:35.676Z,74.87
2018-12-12T00:21:04.737Z,88.77
2018-12-12T00:23:33.827Z,103.50
2018-12-12T00:26:02.886Z,99.43
2018-12-12T00:28:31.940Z,98.07
2018-12-12T00:31:01.021Z,76.73
2018-12-12T00:33:30.080Z,82.33
2018-12-12T00:35:59.129Z,80.40
2018-12-12T00:38:28.313Z,78.73
2018-12-12T00:40:57.377Z,71.07
2018-12-12T00:43:26.422Z,68.33
2018-12-12T00:45:56.468Z,71.43
2018-12-12T00:48:25.524Z,69.63
2018-12-12T00:50:54.594Z,68.63
2018-12-12T00:53:23.676Z,75.23
2018-12-12T00:56:02.399Z,80.03
2018-12-12T00:58:31.513Z,79.83
2018-12-12T01:01:00.583Z,74.00
2018-12-12T01:03:29.648Z,64.50
2018-12-12T01:05:58.736Z,64.60
2018-12-12T01:08:27.800Z,60.07
2018-12-12T01:11:02.439Z,56.63
2018-12-12T01:13:31.489Z,55.27
2018-12-12T01:16:02.482Z,53.67
2018-12-12T01:18:31.926Z,58.00
2018-12-12T01:21:00.981Z,50.73
2018-12-12T01:23:30.026Z,60.20
2018-12-12T01:25:59.111Z,59.87
2018-12-12T01:28:28.170Z,67.67
2018-12-12T01:30:57.230Z,60.27
2018-12-12T01:33:26.303Z,60.33
2018-12-12T01:35:55.356Z,67.57
2018-12-12T01:38:24.413Z,73.57
2018-12-12T01:40:53.515Z,65.17
2018-12-12T01:43:22.565Z,54.40
2018-12-12T01:45:51.627Z,53.07
2018-12-12T01:48:20.788Z,49.10
2018-12-12T01:50:49.837Z,45.77
2018-12-12T01:53:18.898Z,45.10
2018-12-12T01:55:48.069Z,47.17
2018-12-12T01:58:17.187Z,46.50
2018-12-12T02:00:46.190Z,50.97
2018-12-12T02:03:15.272Z,47.37
2018-12-12T02:05:44.335Z,41.77
2018-12-12T02:08:13.376Z,46.23
2018-12-12T02:10:42.460Z,44.20
2018-12-12T02:13:24.400Z,41.70
2018-12-12T02:15:53.486Z,37.10
2018-12-12T02:18:22.535Z,35.07
2018-12-12T02:20:51.590Z,32.63
2018-12-12T02:23:20.709Z,36.03
2018-12-12T02:25:49.763Z,29.60
2018-12-12T02:28:18.811Z,34.00
2018-12-12T02:30:47.899Z,33.67
2018-12-12T02:33:16.936Z,31.20
2018-12-12T02:35:45.992Z,31.93
2018-12-12T02:38:15.076Z,34.77
2018-12-12T02:40:44.133Z,32.30
2018-12-12T02:43:13.178Z,33.57
2018-12-12T02:45:42.283Z,38.07
2018-12-12T02:48:11.332Z,39.37
2018-12-12T02:50:40.391Z,37.30
2018-12-12T02:53:09.471Z,42.93
2018-12-12T02:55:38.526Z,40.70
2018-12-12T02:58:07.576Z,32.77
2018-12-12T03:00:36.646Z,31.80
2018-12-12T03:03:05.713Z,29.67
2018-12-12T03:05:34.756Z,26.43
2018-12-12T03:08:03.868Z,30.10
2018-12-12T03:10:32.925Z,28.90
2018-12-12T03:13:01.970Z,28.60
2018-12-12T03:15:31.330Z,31.77
2018-12-12T03:18:00.392Z,35.03
2018-12-12T03:20:29.453Z,34.90
2018-12-12T03:22:58.537Z,34.90
2018-12-12T03:25:27.590Z,30.40
2018-12-12T03:27:56.647Z,33.73
2018-12-12T03:30:25.779Z,35.23
2018-12-12T03:32:54.820Z,32.10
2018-12-12T03:35:23.872Z,39.33
2018-12-12T03:37:52.952Z,36.70
2018-12-12T03:40:22.014Z,34.10
2018-12-12T03:42:51.070Z,33.10
2018-12-12T03:45:20.156Z,33.90
2018-12-12T03:47:49.205Z,29.47
2018-12-12T03:50:18.260Z,29.10
2018-12-12T03:52:47.533Z,31.83
2018-12-12T03:55:16.593Z,32.67
2018-12-12T03:57:45.638Z,36.97
2018-12-12T04:00:14.720Z,39.07
2018-12-12T04:02:43.772Z,44.47
2018-12-12T04:05:12.829Z,44.47
2018-12-12T04:07:41.908Z,45.10
2018-12-12T04:10:10.968Z,44.03
2018-12-12T04:12:40.019Z,45.67
2018-12-12T04:15:09.130Z,49.50
2018-12-12T04:17:38.191Z,42.47
2018-12-12T04:20:07.265Z,36.27
2018-12-12T04:22:36.341Z,34.77
2018-12-12T04:25:05.390Z,39.30
2018-12-12T04:27:34.436Z,37.90
2018-12-12T04:30:03.539Z,35.57
2018-12-12T04:32:32.606Z,37.77
2018-12-12T04:35:01.658Z,38.53
2018-12-12T04:37:30.767Z,37.57
2018-12-12T04:39:59.813Z,41.83
2018-12-12T04:42:28.859Z,42.93
2018-12-12T04:44:57.937Z,45.37
2018-12-12T04:47:26.990Z,48.63
2018-12-12T04:49:56.033Z,50.27
2018-12-12T04:52:25.113Z,48.97
2018-12-12T04:54:54.178Z,45.73
2018-12-12T04:57:23.237Z,44.60
2018-12-12T04:59:52.339Z,48.77
2018-12-12T05:02:21.398Z,49.70
2018-12-12T05:04:50.455Z,50.07
2018-12-12T05:07:19.556Z,50.00
2018-12-12T05:09:48.620Z,46.47
2018-12-12T05:12:17.676Z,47.47
2018-12-12T05:14:46.763Z,48.17
2018-12-12T05:17:15.829Z,46.40
2018-12-12T05:19:44.889Z,57.80
2018-12-12T05:22:13.993Z,51.57
2018-12-12T05:24:43.232Z,54.83
2018-12-12T05:27:12.278Z,47.03
2018-12-12T05:29:45.331Z,48.43
2018-12-12T05:32:13.349Z,47.90
2018-12-12T05:34:42.401Z,42.27
2018-12-12T05:37:11.478Z,53.27
2018-12-12T05:39:40.598Z,58.10
2018-12-12T05:42:09.590Z,64.17
2018-12-12T05:44:38.686Z,61.20
2018-12-12T05:47:07.748Z,67.17
2018-12-12T05:49:36.804Z,62.13
2018-12-12T05:52:05.900Z,58.93
2018-12-12T05:54:34.961Z,65.07
2018-12-12T05:57:04.029Z,64.20
2018-12-12T05:59:33.126Z,71.53
2018-12-12T06:02:02.184Z,85.90
2018-12-12T06:04:31.238Z,85.97
2018-12-12T06:07:00.340Z,72.10
2018-12-12T06:09:29.395Z,81.30
2018-12-12T06:11:58.461Z,92.53
2018-12-12T06:14:27.546Z,83.23
2018-12-12T06:16:56.609Z,91.07
2018-12-12T06:19:25.682Z,122.07
2018-12-12T06:21:54.778Z,152.83
2018-12-12T06:24:23.837Z,138.37
2018-12-12T06:26:52.908Z,104.33
2018-12-12T06:29:22.065Z,90.30
2018-12-12T06:31:51.102Z,77.27
2018-12-12T06:34:20.163Z,111.90
2018-12-12T06:36:49.262Z,110.60
2018-12-12T06:39:18.331Z,107.97
2018-12-12T06:41:47.396Z,101.50
2018-12-12T06:44:16.488Z,86.17
2018-12-12T06:46:45.565Z,100.00
2018-12-12T06:49:14.633Z,105.20
2018-12-12T06:51:43.746Z,97.13
2018-12-12T06:54:12.805Z,103.43
2018-12-12T06:56:41.869Z,94.20
2018-12-12T06:59:10.948Z,98.83
2018-12-12T07:01:39.999Z,90.37
2018-12-12T07:04:09.062Z,83.77
2018-12-12T07:06:41.577Z,83.27
2018-12-12T07:09:10.651Z,81.17
2018-12-12T07:11:39.707Z,73.50
2018-12-12T07:14:08.815Z,86.53
2018-12-12T07:16:37.903Z,100.90
2018-12-12T07:19:06.958Z,103.63
2018-12-12T07:21:36.054Z,78.57
2018-12-12T07:24:05.117Z,74.37
2018-12-12T07:26:34.189Z,128.00
2018-12-12T07:29:03.283Z,95.73
2018-12-12T07:31:32.331Z,83.70
2018-12-12T07:34:01.460Z,64.37
2018-12-12T07:36:30.500Z,77.20
2018-12-12T07:38:59.553Z,76.53
2018-12-12T07:41:28.605Z,72.87
2018-12-12T07:43:57.687Z,81.00
2018-12-12T07:46:32.095Z,96.57
2018-12-12T07:49:01.173Z,112.63
2018-12-12T07:51:30.226Z,126.03
2018-12-12T07:53:59.281Z,117.17
2018-12-12T07:56:28.414Z,119.33
2018-12-12T07:58:57.492Z,120.23
2018-12-12T08:01:26.574Z,113.63
2018-12-12T08:03:55.664Z,117.77
2018-12-12T08:06:24.734Z,98.47
2018-12-12T08:08:53.798Z,94.90
2018-12-12T08:11:22.891Z,91.07
2018-12-12T08:13:51.959Z,82.00
2018-12-12T08:16:21.011Z,82.50
2018-12-12T08:18:50.131Z,81.37
2018-12-12T08:21:19.189Z,74.33
2018-12-12T08:23:48.241Z,79.10
2018-12-12T08:26:17.343Z,84.23
2018-12-12T08:28:46.389Z,83.30
2018-12-12T08:31:15.465Z,91.70
2018-12-12T08:33:44.558Z,100.97
2018-12-12T08:36:13.626Z,115.87
2018-12-12T08:38:42.691Z,110.30
2018-12-12T08:41:11.960Z,107.63
2018-12-12T08:43:41.035Z,94.40
2018-12-12T08:46:11.120Z,85.57
2018-12-12T08:48:40.203Z,90.77
2018-12-12T08:51:09.278Z,103.67
2018-12-12T08:53:38.348Z,107.87
2018-12-12T08:56:07.703Z,104.23
2018-12-12T08:58:36.781Z,41.20
2018-12-12T09:01:05.839Z,22.03
2018-12-12T09:03:35.305Z,20.00
2018-12-12T09:06:12.538Z,9.87
2018-12-12T09:08:41.624Z,15.37
2018-12-12T09:11:10.670Z,11.47
2018-12-12T09:13:39.710Z,10.70
2018-12-12T09:16:08.796Z,13.33
2018-12-12T09:18:37.853Z,11.60
2018-12-12T09:21:06.897Z,11.63
2018-12-12T09:23:36.019Z,7.93
2018-12-12T09:26:12.742Z,8.03
2018-12-12T09:28:41.805Z,8.17
2018-12-12T09:31:10.842Z,8.37
2018-12-12T09:33:39.903Z,14.30
2018-12-12T09:36:08.983Z,40.27
2018-12-12T09:38:38.072Z,30.30
2018-12-12T09:41:07.150Z,22.03
2018-12-12T09:43:36.284Z,18.93
2018-12-12T09:46:05.350Z,15.97
2018-12-12T09:48:34.418Z,20.70
2018-12-12T09:51:07.121Z,89.83
2018-12-12T09:53:32.574Z,134.90
2018-12-12T09:56:01.637Z,153.63
2018-12-12T09:58:30.743Z,149.83
2018-12-12T10:00:59.811Z,158.77
2018-12-12T10:03:31.080Z,145.47
2018-12-12T10:09:04.760Z,152.20
2018-12-12T10:11:33.853Z,152.00
2018-12-12T10:14:02.930Z,142.40
2018-12-12T10:16:32.000Z,143.53
2018-12-12T10:19:01.104Z,157.50
2018-12-12T10:21:30.162Z,154.20
2018-12-12T10:23:59.214Z,158.50
2018-12-12T10:26:28.333Z,141.63
2018-12-12T10:28:57.391Z,150.03
2018-12-12T10:31:26.457Z,146.60
2018-12-12T10:33:55.855Z,159.17
2018-12-12T10:36:24.933Z,167.83
2018-12-12T10:38:54.014Z,169.37
2018-12-12T10:41:23.125Z,197.67
2018-12-12T10:43:52.196Z,184.90
2018-12-12T10:46:21.262Z,199.80
2018-12-12T10:48:50.401Z,194.77
2018-12-12T10:51:19.482Z,198.57
2018-12-12T10:53:48.555Z,195.07
2018-12-12T10:56:17.667Z,224.90
2018-12-12T10:58:46.741Z,228.13
2018-12-12T11:01:21.479Z,236.33
2018-12-12T11:03:50.542Z,280.10
2018-12-12T11:06:19.612Z,360.20
2018-12-12T11:08:48.831Z,254.40
2018-12-12T11:11:17.907Z,228.73
2018-12-12T11:13:46.990Z,221.77
2018-12-12T11:16:16.097Z,214.17
2018-12-12T11:18:45.173Z,231.20
2018-12-12T11:21:14.243Z,225.43
2018-12-12T11:23:43.343Z,216.53
2018-12-12T11:26:12.408Z,239.80
2018-12-12T11:28:41.492Z,220.43
2018-12-12T11:31:10.618Z,216.73
2018-12-12T11:33:39.689Z,228.37
2018-12-12T11:36:17.061Z,242.17
2018-12-12T11:38:46.131Z,222.53
2018-12-12T11:41:15.198Z,200.10
2018-12-12T11:43:44.303Z,172.77
2018-12-12T11:46:13.380Z,159.93
2018-12-12T11:48:42.460Z,160.13
2018-12-12T11:51:11.746Z,162.23
2018-12-12T11:53:40.817Z,168.13
2018-12-12T11:56:09.895Z,158.90
2018-12-12T11:58:44.803Z,157.87
2018-12-12T12:01:13.872Z,155.67
2018-12-12T12:03:42.933Z,146.70
2018-12-12T12:06:12.109Z,146.63
2018-12-12T12:08:41.182Z,149.10
2018-12-12T12:11:10.237Z,146.93
2018-12-12T12:13:39.351Z,148.83
2018-12-12T12:16:08.417Z,141.13
2018-12-12T12:18:37.477Z,155.93
2018-12-12T12:21:06.571Z,151.30
2018-12-12T12:23:35.681Z,157.90
2018-12-12T12:26:09.344Z,70.00
2018-12-12T12:28:38.393Z,31.83
2018-12-12T12:31:07.447Z,19.70
2018-12-12T12:33:36.566Z,10.87
2018-12-12T12:36:05.626Z,16.37
2018-12-12T12:38:34.690Z,21.73
2018-12-12T12:41:03.759Z,17.03
2018-12-12T12:43:32.824Z,17.83
2018-12-12T12:46:01.891Z,29.73
2018-12-12T12:48:30.963Z,26.20
2018-12-12T12:51:00.016Z,35.93
2018-12-12T12:53:29.069Z,53.03
2018-12-12T12:55:58.200Z,52.80
2018-12-12T12:58:27.258Z,31.73
2018-12-12T13:00:56.315Z,35.60
2018-12-12T13:03:25.402Z,44.40
2018-12-12T13:05:54.460Z,51.17
2018-12-12T13:08:23.524Z,43.93
2018-12-12T13:10:52.609Z,30.93
2018-12-12T13:13:21.750Z,33.93
2018-12-12T13:15:50.724Z,32.80
2018-12-12T13:18:19.818Z,49.53
2018-12-12T13:20:48.894Z,37.97
2018-12-12T13:23:17.950Z,36.03
2018-12-12T13:25:47.036Z,43.13
2018-12-12T13:28:16.089Z,38.00
2018-12-12T13:30:45.149Z,55.40
2018-12-12T13:33:14.229Z,31.53
2018-12-12T13:35:43.283Z,55.53
2018-12-12T13:38:12.336Z,57.53
2018-12-12T13:40:41.453Z,49.93
2018-12-12T13:43:10.504Z,38.77
2018-12-12T13:45:39.571Z,26.33
2018-12-12T13:48:08.661Z,24.80
2018-12-12T13:50:37.720Z,35.70
2018-12-12T13:53:06.845Z,15.07
2018-12-12T13:55:35.866Z,22.27
2018-12-12T13:58:04.989Z,24.30
2018-12-12T14:00:38.972Z,30.33
2018-12-12T14:03:03.142Z,60.10
2018-12-12T14:05:32.202Z,45.20
2018-12-12T14:08:01.263Z,60.87
2018-12-12T14:10:30.348Z,55.97
2018-12-12T14:12:59.415Z,54.27
2018-12-12T14:15:28.467Z,62.17
2018-12-12T14:17:57.559Z,73.57
2018-12-12T14:20:26.639Z,424.67
2018-12-12T14:22:55.721Z,553.97
2018-12-12T14:25:24.832Z,652.37
2018-12-12T14:27:53.903Z,461.80
2018-12-12T14:30:22.980Z,420.23
2018-12-12T14:32:52.083Z,818.03
2018-12-12T14:35:21.158Z,603.50
2018-12-12T14:37:50.228Z,114.53
2018-12-12T14:40:19.307Z,61.83
2018-12-12T14:42:48.378Z,40.73
2018-12-12T14:45:17.438Z,54.97
2018-12-12T14:47:46.553Z,75.50
2018-12-12T14:50:15.604Z,96.53
2018-12-12T14:52:44.670Z,91.87
2018-12-12T14:55:13.830Z,69.83
2018-12-12T14:57:42.886Z,64.70
2018-12-12T15:00:11.952Z,64.57
2018-12-12T15:02:41.034Z,112.50
2018-12-12T15:05:10.091Z,144.03
2018-12-12T15:07:39.154Z,141.53
2018-12-12T15:10:08.543Z,152.17
2018-12-12T15:12:37.605Z,153.43
2018-12-12T15:15:06.667Z,180.80
2018-12-12T15:17:35.759Z,174.37
2018-12-12T15:20:04.830Z,178.27
2018-12-12T15:22:33.885Z,156.40
2018-12-12T15:25:02.978Z,158.37
2018-12-12T15:27:32.038Z,157.50
2018-12-12T15:30:01.100Z,112.17
2018-12-12T15:32:30.228Z,234.73
2018-12-12T15:34:59.311Z,127.53
2018-12-12T15:37:28.381Z,81.83
2018-12-12T15:39:57.461Z,61.47
2018-12-12T15:42:26.517Z,66.13
2018-12-12T15:44:55.599Z,159.07
2018-12-12T15:47:24.689Z,39.70
2018-12-12T15:49:53.735Z,33.40
2018-12-12T15:52:22.783Z,30.30
2018-12-12T15:54:51.904Z,35.50
2018-12-12T15:57:20.951Z,40.03
2018-12-12T15:59:50.011Z,38.17
2018-12-12T16:02:19.104Z,169.50
2018-12-12T16:04:49.166Z,74.17
2018-12-12T16:07:17.222Z,58.40
2018-12-12T16:09:46.303Z,53.03
2018-12-12T16:12:15.368Z,79.27
2018-12-12T16:14:44.432Z,109.10
2018-12-12T16:17:13.565Z,62.60
2018-12-12T16:19:42.619Z,56.90
2018-12-12T16:22:11.662Z,54.00
2018-12-12T16:24:40.757Z,58.87
2018-12-12T16:27:09.830Z,279.10
2018-12-12T16:29:38.894Z,270.67
2018-12-12T16:32:08.009Z,175.23
2018-12-12T16:34:37.085Z,182.63
2018-12-12T16:37:06.154Z,101.50
2018-12-12T16:39:35.389Z,83.97
2018-12-12T16:42:04.442Z,83.57
2018-12-12T16:44:33.500Z,35.67
2018-12-12T16:47:02.586Z,26.47
2018-12-12T16:49:31.638Z,35.80
2018-12-12T16:52:00.707Z,47.17
2018-12-12T16:54:29.795Z,108.60
2018-12-12T16:56:58.867Z,80.00
2018-12-12T16:59:27.922Z,36.63
2018-12-12T17:01:57.123Z,44.10
2018-12-12T17:04:26.180Z,43.83
2018-12-12T17:06:55.247Z,64.37
2018-12-12T17:09:24.342Z,148.40
2018-12-12T17:11:53.404Z,190.73
2018-12-12T17:14:22.478Z,279.27
2018-12-12T17:16:51.570Z,91.10
2018-12-12T17:19:20.633Z,145.77
2018-12-12T17:21:49.714Z,148.10
2018-12-12T17:24:18.814Z,190.00
2018-12-12T17:26:47.881Z,305.67
2018-12-12T17:29:16.951Z,424.40
2018-12-12T17:31:46.053Z,291.80
2018-12-12T17:34:15.118Z,216.10
2018-12-12T17:36:44.202Z,287.87
2018-12-12T17:39:13.304Z,175.47
2018-12-12T17:41:42.379Z,193.03
2018-12-12T17:44:11.460Z,190.03
2018-12-12T17:46:40.590Z,267.47
2018-12-12T17:49:09.661Z,153.40
2018-12-12T17:51:38.736Z,151.30
2018-12-12T17:54:07.838Z,206.63
2018-12-12T17:56:41.243Z,250.80
2018-12-12T17:59:10.340Z,219.10
2018-12-12T18:01:39.413Z,76.50
2018-12-12T18:04:08.490Z,187.13
2018-12-12T18:06:37.590Z,52.17
2018-12-12T18:09:06.640Z,57.03
2018-12-12T18:11:35.697Z,51.33
2018-12-12T18:14:04.778Z,35.23
2018-12-12T18:16:33.823Z,32.43
2018-12-12T18:19:02.891Z,40.90
2018-12-12T18:21:31.978Z,31.43
2018-12-12T18:24:01.026Z,47.43
2018-12-12T18:26:30.070Z,46.87
2018-12-12T18:28:59.206Z,41.30
2018-12-12T18:31:28.257Z,33.60
2018-12-12T18:33:57.943Z,59.70
2018-12-12T18:36:27.045Z,214.80
2018-12-12T18:38:56.099Z,57.87
2018-12-12T18:41:25.163Z,23.20
2018-12-12T18:43:54.248Z,103.33
2018-12-12T18:46:23.308Z,22.60
2018-12-12T18:48:52.373Z,15.30
2018-12-12T18:51:21.460Z,16.90
2018-12-12T18:53:50.515Z,23.57
2018-12-12T18:56:19.574Z,29.23
2018-12-12T18:58:48.666Z,22.80
2018-12-12T19:01:17.726Z,41.67
2018-12-12T19:03:46.788Z,58.27
2018-12-12T19:06:15.880Z,197.83
2018-12-12T19:08:44.948Z,173.73
2018-12-12T19:11:14.002Z,44.50
2018-12-12T19:13:43.185Z,22.27
2018-12-12T19:16:12.268Z,30.43
2018-12-12T19:18:41.329Z,12.93
2018-12-12T19:21:10.419Z,42.83
2018-12-12T19:23:39.471Z,47.83
2018-12-12T19:26:08.519Z,81.00
2018-12-12T19:28:37.615Z,115.67
2018-12-12T19:31:06.700Z,136.10
2018-12-12T19:33:35.757Z,117.03
2018-12-12T19:36:04.851Z,137.03
2018-12-12T19:38:33.912Z,183.67
2018-12-12T19:41:02.988Z,203.83
2018-12-12T19:43:32.363Z,170.63
2018-12-12T19:46:02.818Z,116.73
2018-12-12T19:51:31.225Z,104.63
2018-12-12T19:54:00.427Z,240.53
2018-12-12T19:56:29.503Z,173.57
2018-12-12T19:58:58.571Z,168.43
2018-12-12T20:01:27.747Z,101.20
2018-12-12T20:03:56.805Z,103.20
2018-12-12T20:06:25.884Z,242.13
2018-12-12T20:08:54.994Z,178.73
2018-12-12T20:11:24.168Z,114.87
2018-12-12T20:13:53.236Z,125.83
2018-12-12T20:16:22.354Z,124.00
2018-12-12T20:18:51.414Z,139.77
2018-12-12T20:21:20.475Z,145.60
2018-12-12T20:23:49.568Z,147.50
2018-12-12T20:26:18.637Z,114.60
2018-12-12T20:28:47.701Z,102.73
2018-12-12T20:31:16.815Z,103.43
2018-12-12T20:33:45.851Z,101.77
2018-12-12T20:36:21.618Z,73.03
2018-12-12T20:38:50.755Z,67.53
2018-12-12T20:41:19.799Z,61.43
2018-12-12T20:43:48.872Z,60.30
2018-12-12T20:46:17.933Z,62.00
2018-12-12T20:48:46.985Z,99.17
2018-12-12T20:51:16.075Z,91.70
2018-12-12T20:53:45.144Z,150.50
2018-12-12T20:56:21.394Z,119.33
2018-12-12T20:58:51.093Z,21.33
2018-12-12T21:01:21.095Z,23.43
2018-12-12T21:03:49.293Z,37.23
2018-12-12T21:06:18.345Z,61.97
2018-12-12T21:08:47.412Z,61.97
2018-12-12T21:11:16.519Z,45.53
2018-12-12T21:13:45.562Z,40.23
2018-12-12T21:16:18.757Z,32.10
2018-12-12T21:18:47.760Z,23.63
2018-12-12T21:21:16.823Z,20.13
2018-12-12T21:23:45.908Z,21.67
2018-12-12T21:26:14.977Z,22.20
2018-12-12T21:28:44.048Z,29.03
2018-12-12T21:31:13.522Z,34.90
2018-12-12T21:33:42.505Z,31.53
2018-12-12T21:36:13.580Z,19.10
2018-12-12T21:38:42.690Z,20.83
2018-12-12T21:41:11.785Z,21.37
2018-12-12T21:43:40.845Z,16.90
2018-12-12T21:46:09.921Z,16.60
2018-12-12T21:48:38.993Z,17.37
2018-12-12T21:51:08.050Z,21.07
2018-12-12T21:53:37.127Z,21.67
2018-12-12T21:56:06.186Z,33.80
2018-12-12T21:58:35.261Z,49.37
2018-12-12T22:01:04.466Z,101.80
2018-12-12T22:03:33.532Z,66.00
2018-12-12T22:06:07.305Z,47.23
2018-12-12T22:08:31.675Z,37.20
2018-12-12T22:11:00.745Z,72.53
2018-12-12T22:13:29.811Z,25.93
2018-12-12T22:16:01.171Z,34.23
2018-12-12T22:18:30.233Z,90.73
2018-12-12T22:20:59.332Z,102.77
2018-12-12T22:23:28.425Z,31.30
2018-12-12T22:25:57.478Z,25.50
2018-12-12T22:28:26.563Z,26.03
2018-12-12T22:30:55.632Z,18.23
2018-12-12T22:33:24.686Z,13.37
2018-12-12T22:35:53.746Z,16.97
2018-12-12T22:38:22.834Z,16.20
2018-12-12T22:40:51.902Z,19.00
2018-12-12T22:43:20.969Z,18.73
2018-12-12T22:45:50.169Z,19.80
2018-12-12T22:48:20.744Z,23.73
2018-12-12T22:50:48.279Z,37.27
2018-12-12T22:53:17.365Z,35.17
2018-12-12T22:55:46.430Z,29.03
2018-12-12T22:58:15.496Z,27.13
2018-12-12T23:00:44.906Z,18.13
2018-12-12T23:03:13.963Z,23.80
2018-12-12T23:05:43.019Z,21.27
2018-12-12T23:08:12.181Z,20.83
2018-12-12T23:10:41.256Z,15.87
2018-12-12T23:13:10.300Z,13.70
2018-12-12T23:15:39.462Z,6.43
2018-12-12T23:18:08.500Z,8.37
2018-12-12T23:20:37.544Z,6.90
2018-12-12T23:23:06.650Z,5.83
2018-12-12T23:25:35.693Z,5.87
2018-12-12T23:28:04.749Z,13.03
2018-12-12T23:30:33.930Z,7.00
2018-12-12T23:33:02.965Z,8.13
2018-12-12T23:35:32.021Z,5.83
2018-12-12T23:38:01.091Z,5.83
2018-12-12T23:40:30.134Z,7.73
2018-12-12T23:42:59.178Z,7.27
2018-12-12T23:45:28.520Z,6.63
2018-12-12T23:47:57.574Z,11.63
2018-12-12T23:50:26.638Z,15.70
2018-12-12T23:52:55.735Z,13.77
2018-12-12T23:55:24.776Z,10.40
2018-12-12T23:57:53.833Z,7.90
